sensor_id;sensor_type;location;lat;lon;timestamp;temperature;humidity
32139;DHT22;18644;48.700;9.210;2023-06-10T00:02:05;19.00;46.70
32139;DHT22;18644;48.700;9.210;2023-06-10T00:04:33;19.00;46.80
32139;DHT22;18644;48.700;9.210;2023-06-10T00:06:59;18.90;46.90
32139;DHT22;18644;48.700;9.210;2023-06-10T00:09:26;18.80;47.00
32139;DHT22;18644;48.700;9.210;2023-06-10T00:11:55;18.80;47.10
32139;DHT22;18644;48.700;9.210;2023-06-10T00:14:25;18.70;47.30
32139;DHT22;18644;48.700;9.210;2023-06-10T00:16:52;18.70;47.40
32139;DHT22;18644;48.700;9.210;2023-06-10T00:19:18;18.60;47.50
32139;DHT22;18644;48.700;9.210;2023-06-10T00:21:51;18.60;47.50
32139;DHT22;18644;48.700;9.210;2023-06-10T00:24:18;18.50;47.50
32139;DHT22;18644;48.700;9.210;2023-06-10T00:26:45;18.50;47.70
32139;DHT22;18644;48.700;9.210;2023-06-10T00:29:13;18.50;47.90
32139;DHT22;18644;48.700;9.210;2023-06-10T00:31:40;18.40;48.00
32139;DHT22;18644;48.700;9.210;2023-06-10T00:34:08;18.40;48.00
32139;DHT22;18644;48.700;9.210;2023-06-10T00:36:34;18.30;48.20
32139;DHT22;18644;48.700;9.210;2023-06-10T00:39:02;18.20;48.30
32139;DHT22;18644;48.700;9.210;2023-06-10T00:41:29;18.20;48.40
32139;DHT22;18644;48.700;9.210;2023-06-10T00:43:57;18.20;48.60
32139;DHT22;18644;48.700;9.210;2023-06-10T00:46:26;18.20;48.70
32139;DHT22;18644;48.700;9.210;2023-06-10T00:48:53;18.10;48.70
32139;DHT22;18644;48.700;9.210;2023-06-10T00:51:20;18.10;48.80
32139;DHT22;18644;48.700;9.210;2023-06-10T00:53:48;18.00;48.90
32139;DHT22;18644;48.700;9.210;2023-06-10T00:56:16;18.00;49.10
32139;DHT22;18644;48.700;9.210;2023-06-10T00:58:43;17.90;49.10
32139;DHT22;18644;48.700;9.210;2023-06-10T01:01:09;17.90;49.30
32139;DHT22;18644;48.700;9.210;2023-06-10T01:03:39;17.90;49.40
32139;DHT22;18644;48.700;9.210;2023-06-10T01:06:11;17.80;49.50
32139;DHT22;18644;48.700;9.210;2023-06-10T01:08:54;17.80;49.60
32139;DHT22;18644;48.700;9.210;2023-06-10T01:11:28;17.80;49.70
32139;DHT22;18644;48.700;9.210;2023-06-10T01:13:58;17.70;49.90
32139;DHT22;18644;48.700;9.210;2023-06-10T01:16:26;17.70;49.90
32139;DHT22;18644;48.700;9.210;2023-06-10T01:18:55;17.70;50.00
32139;DHT22;18644;48.700;9.210;2023-06-10T01:21:23;17.60;50.10
32139;DHT22;18644;48.700;9.210;2023-06-10T01:23:52;17.60;50.20
32139;DHT22;18644;48.700;9.210;2023-06-10T01:26:24;17.50;50.20
32139;DHT22;18644;48.700;9.210;2023-06-10T01:28:59;17.50;50.30
32139;DHT22;18644;48.700;9.210;2023-06-10T01:31:38;17.50;50.30
32139;DHT22;18644;48.700;9.210;2023-06-10T01:34:11;17.50;50.40
32139;DHT22;18644;48.700;9.210;2023-06-10T01:36:45;17.40;50.40
32139;DHT22;18644;48.700;9.210;2023-06-10T01:39:14;17.40;50.40
32139;DHT22;18644;48.700;9.210;2023-06-10T01:41:42;17.30;50.30
32139;DHT22;18644;48.700;9.210;2023-06-10T01:44:10;17.30;50.60
32139;DHT22;18644;48.700;9.210;2023-06-10T01:46:37;17.20;50.70
32139;DHT22;18644;48.700;9.210;2023-06-10T01:49:03;17.20;50.90
32139;DHT22;18644;48.700;9.210;2023-06-10T01:51:30;17.20;50.90
32139;DHT22;18644;48.700;9.210;2023-06-10T01:53:59;17.10;50.80
32139;DHT22;18644;48.700;9.210;2023-06-10T01:56:25;17.10;51.00
32139;DHT22;18644;48.700;9.210;2023-06-10T01:58:52;17.10;51.10
32139;DHT22;18644;48.700;9.210;2023-06-10T02:01:24;17.00;51.10
32139;DHT22;18644;48.700;9.210;2023-06-10T02:03:51;17.00;51.30
32139;DHT22;18644;48.700;9.210;2023-06-10T02:06:18;17.00;51.40
32139;DHT22;18644;48.700;9.210;2023-06-10T02:08:45;17.00;51.50
32139;DHT22;18644;48.700;9.210;2023-06-10T02:11:13;16.90;51.50
32139;DHT22;18644;48.700;9.210;2023-06-10T02:13:40;16.90;51.70
32139;DHT22;18644;48.700;9.210;2023-06-10T02:16:06;16.90;51.80
32139;DHT22;18644;48.700;9.210;2023-06-10T02:18:34;16.90;51.80
32139;DHT22;18644;48.700;9.210;2023-06-10T02:21:01;16.80;51.80
32139;DHT22;18644;48.700;9.210;2023-06-10T02:23:28;16.80;51.70
32139;DHT22;18644;48.700;9.210;2023-06-10T02:25:55;16.70;51.70
32139;DHT22;18644;48.700;9.210;2023-06-10T02:28:23;16.70;51.90
32139;DHT22;18644;48.700;9.210;2023-06-10T02:30:51;16.70;52.00
32139;DHT22;18644;48.700;9.210;2023-06-10T02:33:18;16.70;52.10
32139;DHT22;18644;48.700;9.210;2023-06-10T02:35:45;16.60;52.10
32139;DHT22;18644;48.700;9.210;2023-06-10T02:38:12;16.60;52.10
32139;DHT22;18644;48.700;9.210;2023-06-10T02:40:39;16.60;52.10
32139;DHT22;18644;48.700;9.210;2023-06-10T02:43:06;16.50;52.20
32139;DHT22;18644;48.700;9.210;2023-06-10T02:45:34;16.50;52.40
32139;DHT22;18644;48.700;9.210;2023-06-10T02:48:01;16.50;52.50
32139;DHT22;18644;48.700;9.210;2023-06-10T02:50:28;16.40;52.50
32139;DHT22;18644;48.700;9.210;2023-06-10T02:52:55;16.40;52.70
32139;DHT22;18644;48.700;9.210;2023-06-10T02:55:21;16.40;52.70
32139;DHT22;18644;48.700;9.210;2023-06-10T02:57:51;16.40;52.80
32139;DHT22;18644;48.700;9.210;2023-06-10T03:00:19;16.30;52.80
32139;DHT22;18644;48.700;9.210;2023-06-10T03:02:48;16.30;52.70
32139;DHT22;18644;48.700;9.210;2023-06-10T03:05:15;16.30;52.90
32139;DHT22;18644;48.700;9.210;2023-06-10T03:07:42;16.20;53.00
32139;DHT22;18644;48.700;9.210;2023-06-10T03:10:10;16.20;53.20
32139;DHT22;18644;48.700;9.210;2023-06-10T03:12:36;16.20;53.30
32139;DHT22;18644;48.700;9.210;2023-06-10T03:15:04;16.20;53.30
32139;DHT22;18644;48.700;9.210;2023-06-10T03:17:32;16.20;53.20
32139;DHT22;18644;48.700;9.210;2023-06-10T03:20:00;16.10;53.20
32139;DHT22;18644;48.700;9.210;2023-06-10T03:22:28;16.10;53.40
32139;DHT22;18644;48.700;9.210;2023-06-10T03:24:56;16.10;53.60
32139;DHT22;18644;48.700;9.210;2023-06-10T03:27:23;16.10;53.60
32139;DHT22;18644;48.700;9.210;2023-06-10T03:29:49;16.10;53.70
32139;DHT22;18644;48.700;9.210;2023-06-10T03:32:16;16.10;53.70
32139;DHT22;18644;48.700;9.210;2023-06-10T03:34:43;16.10;53.70
32139;DHT22;18644;48.700;9.210;2023-06-10T03:37:14;16.00;53.70
32139;DHT22;18644;48.700;9.210;2023-06-10T03:39:41;16.00;53.80
32139;DHT22;18644;48.700;9.210;2023-06-10T03:42:08;16.00;53.80
32139;DHT22;18644;48.700;9.210;2023-06-10T03:44:34;16.00;53.90
32139;DHT22;18644;48.700;9.210;2023-06-10T03:47:01;15.90;53.80
32139;DHT22;18644;48.700;9.210;2023-06-10T03:49:28;15.90;54.10
32139;DHT22;18644;48.700;9.210;2023-06-10T03:51:55;15.90;54.20
32139;DHT22;18644;48.700;9.210;2023-06-10T03:54:24;16.00;54.30
32139;DHT22;18644;48.700;9.210;2023-06-10T03:56:51;15.90;54.40
32139;DHT22;18644;48.700;9.210;2023-06-10T03:59:18;16.00;54.50
32139;DHT22;18644;48.700;9.210;2023-06-10T04:01:45;16.00;54.70
32139;DHT22;18644;48.700;9.210;2023-06-10T04:04:14;16.00;55.00
32139;DHT22;18644;48.700;9.210;2023-06-10T04:06:41;16.10;55.10
32139;DHT22;18644;48.700;9.210;2023-06-10T04:09:10;16.10;55.20
32139;DHT22;18644;48.700;9.210;2023-06-10T04:11:38;16.20;55.30
32139;DHT22;18644;48.700;9.210;2023-06-10T04:14:05;16.20;55.50
32139;DHT22;18644;48.700;9.210;2023-06-10T04:16:32;16.30;55.60
32139;DHT22;18644;48.700;9.210;2023-06-10T04:18:59;16.30;55.70
32139;DHT22;18644;48.700;9.210;2023-06-10T04:21:26;16.40;55.70
32139;DHT22;18644;48.700;9.210;2023-06-10T04:23:53;16.40;55.70
32139;DHT22;18644;48.700;9.210;2023-06-10T04:26:20;16.40;55.80
32139;DHT22;18644;48.700;9.210;2023-06-10T04:28:48;16.50;56.00
32139;DHT22;18644;48.700;9.210;2023-06-10T04:31:15;16.50;56.20
32139;DHT22;18644;48.700;9.210;2023-06-10T04:33:42;16.60;56.30
32139;DHT22;18644;48.700;9.210;2023-06-10T04:36:09;16.60;56.30
32139;DHT22;18644;48.700;9.210;2023-06-10T04:38:36;16.70;56.60
32139;DHT22;18644;48.700;9.210;2023-06-10T04:41:03;16.80;56.70
32139;DHT22;18644;48.700;9.210;2023-06-10T04:43:30;16.80;56.90
32139;DHT22;18644;48.700;9.210;2023-06-10T04:45:58;16.90;57.20
32139;DHT22;18644;48.700;9.210;2023-06-10T04:48:25;17.00;57.30
32139;DHT22;18644;48.700;9.210;2023-06-10T04:50:52;17.10;57.40
32139;DHT22;18644;48.700;9.210;2023-06-10T04:53:19;17.20;57.40
32139;DHT22;18644;48.700;9.210;2023-06-10T04:55:47;17.30;57.40
32139;DHT22;18644;48.700;9.210;2023-06-10T04:58:14;17.40;57.40
32139;DHT22;18644;48.700;9.210;2023-06-10T05:00:42;17.50;57.60
32139;DHT22;18644;48.700;9.210;2023-06-10T05:03:10;17.60;57.80
32139;DHT22;18644;48.700;9.210;2023-06-10T05:05:37;17.70;57.80
32139;DHT22;18644;48.700;9.210;2023-06-10T05:08:04;17.80;57.70
32139;DHT22;18644;48.700;9.210;2023-06-10T05:10:31;17.90;57.80
32139;DHT22;18644;48.700;9.210;2023-06-10T05:12:59;18.00;57.60
32139;DHT22;18644;48.700;9.210;2023-06-10T05:15:26;18.20;57.50
32139;DHT22;18644;48.700;9.210;2023-06-10T05:17:53;18.30;57.40
32139;DHT22;18644;48.700;9.210;2023-06-10T05:20:21;18.40;57.20
32139;DHT22;18644;48.700;9.210;2023-06-10T05:22:48;18.50;57.10
32139;DHT22;18644;48.700;9.210;2023-06-10T05:25:15;18.60;57.10
32139;DHT22;18644;48.700;9.210;2023-06-10T05:27:42;18.70;56.80
32139;DHT22;18644;48.700;9.210;2023-06-10T05:30:10;18.90;57.30
32139;DHT22;18644;48.700;9.210;2023-06-10T05:32:37;19.00;56.60
32139;DHT22;18644;48.700;9.210;2023-06-10T05:35:04;19.10;56.60
32139;DHT22;18644;48.700;9.210;2023-06-10T05:37:34;19.20;56.60
32139;DHT22;18644;48.700;9.210;2023-06-10T05:40:02;19.40;56.70
32139;DHT22;18644;48.700;9.210;2023-06-10T05:42:30;19.50;56.60
32139;DHT22;18644;48.700;9.210;2023-06-10T05:44:57;19.60;56.50
32139;DHT22;18644;48.700;9.210;2023-06-10T05:47:24;19.70;56.50
32139;DHT22;18644;48.700;9.210;2023-06-10T05:49:51;19.80;56.30
32139;DHT22;18644;48.700;9.210;2023-06-10T05:52:18;19.90;56.10
32139;DHT22;18644;48.700;9.210;2023-06-10T05:54:46;20.00;55.90
32139;DHT22;18644;48.700;9.210;2023-06-10T05:57:13;20.10;55.80
32139;DHT22;18644;48.700;9.210;2023-06-10T05:59:40;20.30;55.80
32139;DHT22;18644;48.700;9.210;2023-06-10T06:02:07;20.40;55.60
32139;DHT22;18644;48.700;9.210;2023-06-10T06:04:34;20.50;55.40
32139;DHT22;18644;48.700;9.210;2023-06-10T06:07:01;20.60;55.30
32139;DHT22;18644;48.700;9.210;2023-06-10T06:09:27;20.70;55.30
32139;DHT22;18644;48.700;9.210;2023-06-10T06:11:56;20.80;55.30
32139;DHT22;18644;48.700;9.210;2023-06-10T06:14:23;20.90;55.30
32139;DHT22;18644;48.700;9.210;2023-06-10T06:16:51;21.00;55.30
32139;DHT22;18644;48.700;9.210;2023-06-10T06:19:18;21.10;55.20
32139;DHT22;18644;48.700;9.210;2023-06-10T06:21:45;21.30;55.10
32139;DHT22;18644;48.700;9.210;2023-06-10T06:24:18;21.40;55.00
32139;DHT22;18644;48.700;9.210;2023-06-10T06:26:44;21.50;54.90
32139;DHT22;18644;48.700;9.210;2023-06-10T06:29:13;21.60;54.80
32139;DHT22;18644;48.700;9.210;2023-06-10T06:31:39;21.80;54.80
32139;DHT22;18644;48.700;9.210;2023-06-10T06:34:06;21.90;54.80
32139;DHT22;18644;48.700;9.210;2023-06-10T06:36:33;22.00;54.60
32139;DHT22;18644;48.700;9.210;2023-06-10T06:39:00;22.20;54.30
32139;DHT22;18644;48.700;9.210;2023-06-10T06:41:27;22.30;54.00
32139;DHT22;18644;48.700;9.210;2023-06-10T06:43:54;22.40;53.90
32139;DHT22;18644;48.700;9.210;2023-06-10T06:46:22;22.60;53.80
32139;DHT22;18644;48.700;9.210;2023-06-10T06:48:49;22.80;53.50
32139;DHT22;18644;48.700;9.210;2023-06-10T06:51:16;22.90;53.40
32139;DHT22;18644;48.700;9.210;2023-06-10T06:53:42;23.10;53.50
32139;DHT22;18644;48.700;9.210;2023-06-10T06:56:11;23.20;53.20
32139;DHT22;18644;48.700;9.210;2023-06-10T06:58:38;23.40;52.90
32139;DHT22;18644;48.700;9.210;2023-06-10T07:01:04;23.50;52.80
32139;DHT22;18644;48.700;9.210;2023-06-10T07:03:33;23.70;53.20
32139;DHT22;18644;48.700;9.210;2023-06-10T07:06:00;23.90;52.30
32139;DHT22;18644;48.700;9.210;2023-06-10T07:08:26;24.00;52.00
32139;DHT22;18644;48.700;9.210;2023-06-10T07:10:54;24.20;51.70
32139;DHT22;18644;48.700;9.210;2023-06-10T07:13:21;24.30;51.30
32139;DHT22;18644;48.700;9.210;2023-06-10T07:15:48;24.40;51.40
32139;DHT22;18644;48.700;9.210;2023-06-10T07:18:15;24.60;51.30
32139;DHT22;18644;48.700;9.210;2023-06-10T07:20:44;24.70;51.20
32139;DHT22;18644;48.700;9.210;2023-06-10T07:23:10;24.80;51.00
32139;DHT22;18644;48.700;9.210;2023-06-10T07:25:37;25.00;50.60
32139;DHT22;18644;48.700;9.210;2023-06-10T07:28:04;25.10;50.50
32139;DHT22;18644;48.700;9.210;2023-06-10T07:30:31;25.20;50.70
32139;DHT22;18644;48.700;9.210;2023-06-10T07:32:58;25.40;50.80
32139;DHT22;18644;48.700;9.210;2023-06-10T07:35:26;25.50;50.30
32139;DHT22;18644;48.700;9.210;2023-06-10T07:37:54;25.60;50.40
32139;DHT22;18644;48.700;9.210;2023-06-10T07:40:21;25.70;50.00
32139;DHT22;18644;48.700;9.210;2023-06-10T07:42:48;25.90;50.00
32139;DHT22;18644;48.700;9.210;2023-06-10T07:45:15;26.00;49.80
32139;DHT22;18644;48.700;9.210;2023-06-10T07:47:43;26.10;49.50
32139;DHT22;18644;48.700;9.210;2023-06-10T07:50:10;26.30;49.40
32139;DHT22;18644;48.700;9.210;2023-06-10T07:52:37;26.40;49.00
32139;DHT22;18644;48.700;9.210;2023-06-10T07:55:06;26.50;48.70
32139;DHT22;18644;48.700;9.210;2023-06-10T07:57:33;26.60;49.00
32139;DHT22;18644;48.700;9.210;2023-06-10T08:00:02;26.70;49.20
32139;DHT22;18644;48.700;9.210;2023-06-10T08:02:30;26.80;48.50
32139;DHT22;18644;48.700;9.210;2023-06-10T08:04:56;26.90;48.40
32139;DHT22;18644;48.700;9.210;2023-06-10T08:07:23;27.00;47.90
32139;DHT22;18644;48.700;9.210;2023-06-10T08:09:50;27.10;47.30
32139;DHT22;18644;48.700;9.210;2023-06-10T08:12:19;27.20;47.50
32139;DHT22;18644;48.700;9.210;2023-06-10T08:14:46;27.30;47.60
32139;DHT22;18644;48.700;9.210;2023-06-10T08:17:13;27.40;47.50
32139;DHT22;18644;48.700;9.210;2023-06-10T08:19:40;27.50;47.70
32139;DHT22;18644;48.700;9.210;2023-06-10T08:22:07;27.60;47.50
32139;DHT22;18644;48.700;9.210;2023-06-10T08:24:35;27.70;47.30
32139;DHT22;18644;48.700;9.210;2023-06-10T08:27:02;27.80;47.00
32139;DHT22;18644;48.700;9.210;2023-06-10T08:29:32;27.90;46.20
32139;DHT22;18644;48.700;9.210;2023-06-10T08:32:00;28.00;46.00
32139;DHT22;18644;48.700;9.210;2023-06-10T08:34:27;28.10;46.30
32139;DHT22;18644;48.700;9.210;2023-06-10T08:36:54;28.20;46.10
32139;DHT22;18644;48.700;9.210;2023-06-10T08:39:22;28.30;46.00
32139;DHT22;18644;48.700;9.210;2023-06-10T08:42:07;28.40;45.80
32139;DHT22;18644;48.700;9.210;2023-06-10T08:44:40;28.50;45.00
32139;DHT22;18644;48.700;9.210;2023-06-10T08:47:13;28.60;45.60
32139;DHT22;18644;48.700;9.210;2023-06-10T08:49:43;28.60;44.80
32139;DHT22;18644;48.700;9.210;2023-06-10T08:52:14;28.80;44.80
32139;DHT22;18644;48.700;9.210;2023-06-10T08:54:44;28.80;44.80
32139;DHT22;18644;48.700;9.210;2023-06-10T08:57:17;28.90;44.90
32139;DHT22;18644;48.700;9.210;2023-06-10T08:59:47;29.00;44.90
32139;DHT22;18644;48.700;9.210;2023-06-10T09:02:14;29.00;44.80
32139;DHT22;18644;48.700;9.210;2023-06-10T09:04:46;29.10;44.50
32139;DHT22;18644;48.700;9.210;2023-06-10T09:07:14;29.20;44.30
32139;DHT22;18644;48.700;9.210;2023-06-10T09:09:42;29.30;44.70
32139;DHT22;18644;48.700;9.210;2023-06-10T09:12:10;29.50;44.90
32139;DHT22;18644;48.700;9.210;2023-06-10T09:14:37;29.60;44.50
32139;DHT22;18644;48.700;9.210;2023-06-10T09:17:06;29.70;44.30
32139;DHT22;18644;48.700;9.210;2023-06-10T09:19:33;29.80;44.20
32139;DHT22;18644;48.700;9.210;2023-06-10T09:22:02;29.90;44.20
32139;DHT22;18644;48.700;9.210;2023-06-10T09:24:29;30.00;44.00
32139;DHT22;18644;48.700;9.210;2023-06-10T09:27:02;30.10;43.60
32139;DHT22;18644;48.700;9.210;2023-06-10T09:29:30;30.20;42.80
32139;DHT22;18644;48.700;9.210;2023-06-10T09:31:57;30.30;42.90
32139;DHT22;18644;48.700;9.210;2023-06-10T09:34:26;30.40;43.40
32139;DHT22;18644;48.700;9.210;2023-06-10T09:36:53;30.50;43.50
32139;DHT22;18644;48.700;9.210;2023-06-10T09:39:21;30.60;42.90
32139;DHT22;18644;48.700;9.210;2023-06-10T09:41:48;30.70;42.30
32139;DHT22;18644;48.700;9.210;2023-06-10T09:44:19;30.80;42.20
32139;DHT22;18644;48.700;9.210;2023-06-10T09:46:48;30.80;40.90
32139;DHT22;18644;48.700;9.210;2023-06-10T09:49:16;30.80;41.00
32139;DHT22;18644;48.700;9.210;2023-06-10T09:51:52;30.80;40.80
32139;DHT22;18644;48.700;9.210;2023-06-10T09:54:20;30.80;41.00
32139;DHT22;18644;48.700;9.210;2023-06-10T09:56:47;30.80;40.80
32139;DHT22;18644;48.700;9.210;2023-06-10T09:59:15;30.80;40.50
32139;DHT22;18644;48.700;9.210;2023-06-10T10:01:43;30.80;41.00
32139;DHT22;18644;48.700;9.210;2023-06-10T10:04:10;30.80;40.60
32139;DHT22;18644;48.700;9.210;2023-06-10T10:06:38;30.80;40.20
32139;DHT22;18644;48.700;9.210;2023-06-10T10:09:07;30.80;40.80
32139;DHT22;18644;48.700;9.210;2023-06-10T10:11:34;30.90;41.30
32139;DHT22;18644;48.700;9.210;2023-06-10T10:14:04;30.90;41.00
32139;DHT22;18644;48.700;9.210;2023-06-10T10:16:36;31.10;41.20
32139;DHT22;18644;48.700;9.210;2023-06-10T10:19:11;31.30;41.10
32139;DHT22;18644;48.700;9.210;2023-06-10T10:21:47;31.40;41.30
32139;DHT22;18644;48.700;9.210;2023-06-10T10:24:30;31.60;40.10
32139;DHT22;18644;48.700;9.210;2023-06-10T10:27:01;31.70;39.70
32139;DHT22;18644;48.700;9.210;2023-06-10T10:29:38;31.80;39.80
32139;DHT22;18644;48.700;9.210;2023-06-10T10:32:06;31.90;39.40
32139;DHT22;18644;48.700;9.210;2023-06-10T10:34:37;31.90;38.80
32139;DHT22;18644;48.700;9.210;2023-06-10T10:37:09;31.90;39.10
32139;DHT22;18644;48.700;9.210;2023-06-10T10:39:37;32.00;39.20
32139;DHT22;18644;48.700;9.210;2023-06-10T10:42:07;32.00;38.30
32139;DHT22;18644;48.700;9.210;2023-06-10T10:44:36;32.00;38.10
32139;DHT22;18644;48.700;9.210;2023-06-10T10:47:06;32.00;38.50
32139;DHT22;18644;48.700;9.210;2023-06-10T10:49:35;31.90;38.60
32139;DHT22;18644;48.700;9.210;2023-06-10T10:52:04;31.90;38.10
32139;DHT22;18644;48.700;9.210;2023-06-10T10:54:33;32.00;38.20
32139;DHT22;18644;48.700;9.210;2023-06-10T10:57:12;32.00;38.60
32139;DHT22;18644;48.700;9.210;2023-06-10T10:59:51;32.10;37.80
32139;DHT22;18644;48.700;9.210;2023-06-10T11:02:36;32.30;38.40
32139;DHT22;18644;48.700;9.210;2023-06-10T11:05:10;32.40;37.30
32139;DHT22;18644;48.700;9.210;2023-06-10T11:07:38;32.60;37.60
32139;DHT22;18644;48.700;9.210;2023-06-10T11:10:08;32.70;37.70
32139;DHT22;18644;48.700;9.210;2023-06-10T11:12:49;32.80;37.30
32139;DHT22;18644;48.700;9.210;2023-06-10T11:15:18;33.00;36.10
32139;DHT22;18644;48.700;9.210;2023-06-10T11:18:09;33.20;36.00
32139;DHT22;18644;48.700;9.210;2023-06-10T11:20:54;33.20;36.20
32139;DHT22;18644;48.700;9.210;2023-06-10T11:23:37;33.30;36.30
32139;DHT22;18644;48.700;9.210;2023-06-10T11:26:10;33.50;36.60
32139;DHT22;18644;48.700;9.210;2023-06-10T11:31:29;33.70;36.30
32139;DHT22;18644;48.700;9.210;2023-06-10T11:33:58;33.90;36.40
32139;DHT22;18644;48.700;9.210;2023-06-10T11:36:27;34.00;36.30
32139;DHT22;18644;48.700;9.210;2023-06-10T11:38:57;34.10;35.70
32139;DHT22;18644;48.700;9.210;2023-06-10T11:41:26;34.10;35.00
32139;DHT22;18644;48.700;9.210;2023-06-10T11:43:56;34.20;34.40
32139;DHT22;18644;48.700;9.210;2023-06-10T11:46:23;34.20;34.20
32139;DHT22;18644;48.700;9.210;2023-06-10T11:48:53;34.20;34.80
32139;DHT22;18644;48.700;9.210;2023-06-10T11:51:21;34.10;34.60
32139;DHT22;18644;48.700;9.210;2023-06-10T11:53:49;34.20;34.60
32139;DHT22;18644;48.700;9.210;2023-06-10T11:56:19;34.30;34.60
32139;DHT22;18644;48.700;9.210;2023-06-10T11:58:52;34.40;34.10
32139;DHT22;18644;48.700;9.210;2023-06-10T12:01:22;34.40;33.80
32139;DHT22;18644;48.700;9.210;2023-06-10T12:03:57;34.50;33.80
32139;DHT22;18644;48.700;9.210;2023-06-10T12:06:25;34.60;33.60
32139;DHT22;18644;48.700;9.210;2023-06-10T12:08:56;34.60;33.40
32139;DHT22;18644;48.700;9.210;2023-06-10T12:11:25;34.70;33.40
32139;DHT22;18644;48.700;9.210;2023-06-10T12:13:52;34.80;33.20
32139;DHT22;18644;48.700;9.210;2023-06-10T12:16:21;34.90;33.40
32139;DHT22;18644;48.700;9.210;2023-06-10T12:18:48;35.00;32.90
32139;DHT22;18644;48.700;9.210;2023-06-10T12:21:16;35.10;32.50
32139;DHT22;18644;48.700;9.210;2023-06-10T12:24:04;35.20;32.30
32139;DHT22;18644;48.700;9.210;2023-06-10T12:26:36;35.30;32.60
32139;DHT22;18644;48.700;9.210;2023-06-10T12:29:22;35.30;32.50
32139;DHT22;18644;48.700;9.210;2023-06-10T12:31:59;35.40;31.20
32139;DHT22;18644;48.700;9.210;2023-06-10T12:34:32;35.50;32.10
32139;DHT22;18644;48.700;9.210;2023-06-10T12:37:04;35.50;31.70
32139;DHT22;18644;48.700;9.210;2023-06-10T12:39:32;35.60;31.80
32139;DHT22;18644;48.700;9.210;2023-06-10T12:42:00;35.60;31.90
32139;DHT22;18644;48.700;9.210;2023-06-10T12:44:31;35.70;32.20
32139;DHT22;18644;48.700;9.210;2023-06-10T12:47:01;35.90;31.20
32139;DHT22;18644;48.700;9.210;2023-06-10T12:49:34;35.80;31.00
32139;DHT22;18644;48.700;9.210;2023-06-10T12:52:01;35.80;30.40
32139;DHT22;18644;48.700;9.210;2023-06-10T12:54:29;35.80;31.00
32139;DHT22;18644;48.700;9.210;2023-06-10T12:56:55;35.70;30.50
32139;DHT22;18644;48.700;9.210;2023-06-10T12:59:23;35.70;30.60
32139;DHT22;18644;48.700;9.210;2023-06-10T13:01:50;35.70;30.20
32139;DHT22;18644;48.700;9.210;2023-06-10T13:04:20;35.70;29.90
32139;DHT22;18644;48.700;9.210;2023-06-10T13:06:47;35.70;30.20
32139;DHT22;18644;48.700;9.210;2023-06-10T13:09:14;35.70;30.70
32139;DHT22;18644;48.700;9.210;2023-06-10T13:11:42;35.80;30.70
32139;DHT22;18644;48.700;9.210;2023-06-10T13:14:10;35.70;30.70
32139;DHT22;18644;48.700;9.210;2023-06-10T13:16:37;35.80;30.00
32139;DHT22;18644;48.700;9.210;2023-06-10T13:19:06;35.80;30.30
32139;DHT22;18644;48.700;9.210;2023-06-10T13:21:35;35.80;30.00
32139;DHT22;18644;48.700;9.210;2023-06-10T13:24:02;35.80;30.00
32139;DHT22;18644;48.700;9.210;2023-06-10T13:26:29;35.80;29.70
32139;DHT22;18644;48.700;9.210;2023-06-10T13:28:56;35.70;29.30
32139;DHT22;18644;48.700;9.210;2023-06-10T13:31:24;35.60;29.00
32139;DHT22;18644;48.700;9.210;2023-06-10T13:33:51;35.40;28.80
32139;DHT22;18644;48.700;9.210;2023-06-10T13:36:17;35.20;28.60
32139;DHT22;18644;48.700;9.210;2023-06-10T13:38:46;35.00;28.50
32139;DHT22;18644;48.700;9.210;2023-06-10T13:41:16;34.80;28.60
32139;DHT22;18644;48.700;9.210;2023-06-10T13:43:43;34.60;28.80
32139;DHT22;18644;48.700;9.210;2023-06-10T13:46:10;34.50;29.00
32139;DHT22;18644;48.700;9.210;2023-06-10T13:48:37;34.40;29.70
32139;DHT22;18644;48.700;9.210;2023-06-10T13:51:04;34.50;29.80
32139;DHT22;18644;48.700;9.210;2023-06-10T13:53:31;34.40;29.70
32139;DHT22;18644;48.700;9.210;2023-06-10T13:56:00;34.50;29.50
32139;DHT22;18644;48.700;9.210;2023-06-10T13:58:26;34.40;29.50
32139;DHT22;18644;48.700;9.210;2023-06-10T14:00:53;34.40;29.60
32139;DHT22;18644;48.700;9.210;2023-06-10T14:03:21;34.30;29.40
32139;DHT22;18644;48.700;9.210;2023-06-10T14:05:47;34.20;29.80
32139;DHT22;18644;48.700;9.210;2023-06-10T14:08:14;34.20;30.50
32139;DHT22;18644;48.700;9.210;2023-06-10T14:10:42;34.20;30.30
32139;DHT22;18644;48.700;9.210;2023-06-10T14:13:10;34.30;30.00
32139;DHT22;18644;48.700;9.210;2023-06-10T14:15:37;34.30;30.00
32139;DHT22;18644;48.700;9.210;2023-06-10T14:18:04;34.40;30.70
32139;DHT22;18644;48.700;9.210;2023-06-10T14:20:31;34.40;30.40
32139;DHT22;18644;48.700;9.210;2023-06-10T14:22:58;34.50;31.00
32139;DHT22;18644;48.700;9.210;2023-06-10T14:25:25;34.70;31.60
32139;DHT22;18644;48.700;9.210;2023-06-10T14:27:52;34.80;30.80
32139;DHT22;18644;48.700;9.210;2023-06-10T14:30:20;35.00;30.30
32139;DHT22;18644;48.700;9.210;2023-06-10T14:32:47;35.00;29.90
32139;DHT22;18644;48.700;9.210;2023-06-10T14:35:14;35.00;29.80
32139;DHT22;18644;48.700;9.210;2023-06-10T14:37:41;34.80;29.40
32139;DHT22;18644;48.700;9.210;2023-06-10T14:40:08;34.70;29.00
32139;DHT22;18644;48.700;9.210;2023-06-10T14:42:36;34.50;28.60
32139;DHT22;18644;48.700;9.210;2023-06-10T14:45:04;34.40;28.60
32139;DHT22;18644;48.700;9.210;2023-06-10T14:47:33;34.20;29.00
32139;DHT22;18644;48.700;9.210;2023-06-10T14:50:00;34.10;29.20
32139;DHT22;18644;48.700;9.210;2023-06-10T14:52:27;34.00;29.80
32139;DHT22;18644;48.700;9.210;2023-06-10T14:54:54;34.00;30.20
32139;DHT22;18644;48.700;9.210;2023-06-10T14:57:21;34.00;30.20
32139;DHT22;18644;48.700;9.210;2023-06-10T14:59:48;34.10;30.00
32139;DHT22;18644;48.700;9.210;2023-06-10T15:02:16;34.20;30.20
32139;DHT22;18644;48.700;9.210;2023-06-10T15:04:44;34.10;30.30
32139;DHT22;18644;48.700;9.210;2023-06-10T15:07:11;34.10;30.30
32139;DHT22;18644;48.700;9.210;2023-06-10T15:09:40;34.10;30.00
32139;DHT22;18644;48.700;9.210;2023-06-10T15:12:08;34.00;29.90
32139;DHT22;18644;48.700;9.210;2023-06-10T15:14:36;33.90;29.90
32139;DHT22;18644;48.700;9.210;2023-06-10T15:17:03;33.70;29.70
32139;DHT22;18644;48.700;9.210;2023-06-10T15:19:30;33.60;29.50
32139;DHT22;18644;48.700;9.210;2023-06-10T15:21:58;33.50;29.60
32139;DHT22;18644;48.700;9.210;2023-06-10T15:24:25;33.40;29.70
32139;DHT22;18644;48.700;9.210;2023-06-10T15:26:52;33.20;30.00
32139;DHT22;18644;48.700;9.210;2023-06-10T15:29:19;33.20;30.90
32139;DHT22;18644;48.700;9.210;2023-06-10T15:31:47;33.20;31.30
32139;DHT22;18644;48.700;9.210;2023-06-10T15:34:14;33.30;31.40
32139;DHT22;18644;48.700;9.210;2023-06-10T15:36:41;33.40;31.50
32139;DHT22;18644;48.700;9.210;2023-06-10T15:39:09;33.60;31.50
32139;DHT22;18644;48.700;9.210;2023-06-10T15:41:36;33.70;32.40